createdAt,value
2023-01-12T00:01:58.632Z,100810.78
2023-01-12T00:04:25.406Z,100818.94
2023-01-12T00:06:52.019Z,100812.06
2023-01-12T00:09:18.571Z,100808.34
2023-01-12T00:11:47.321Z,100809.44
2023-01-12T00:14:14.290Z,100822.44
2023-01-12T00:16:41.375Z,100812.91
2023-01-12T00:19:15.797Z,100809.19
2023-01-12T00:21:46.364Z,100819.59
2023-01-12T00:24:13.402Z,100808.03
2023-01-12T00:26:39.845Z,100807.72
2023-01-12T00:29:06.302Z,100810.50
2023-01-12T00:31:35.271Z,100800.84
2023-01-12T00:34:02.046Z,100799.66
2023-01-12T00:36:28.454Z,100798.13
2023-01-12T00:38:54.841Z,100792.84
2023-01-12T00:41:40.007Z,100792.44
2023-01-12T00:44:24.876Z,100785.63
2023-01-12T00:46:53.499Z,100798.19
2023-01-12T00:49:20.066Z,100799.03
2023-01-12T00:51:46.536Z,100790.94
2023-01-12T00:54:13.052Z,100794.91
2023-01-12T00:56:39.770Z,100794.06
2023-01-12T00:59:06.519Z,100782.66
2023-01-12T01:01:36.877Z,100775.38
2023-01-12T01:04:03.476Z,100786.84
2023-01-12T01:06:29.906Z,100786.44
2023-01-12T01:08:56.442Z,100789.38
2023-01-12T01:11:23.162Z,100791.31
2023-01-12T01:13:50.065Z,100787.66
2023-01-12T01:16:17.856Z,100792.22
2023-01-12T01:18:44.392Z,100797.78
2023-01-12T01:21:16.383Z,100794.41
2023-01-12T01:23:45.324Z,100810.28
2023-01-12T01:26:15.394Z,100809.41
2023-01-12T01:28:42.056Z,100813.19
2023-01-12T01:31:17.255Z,100817.63
2023-01-12T01:33:44.288Z,100823.25
2023-01-12T01:36:11.596Z,100828.19
2023-01-12T01:38:38.755Z,100828.59
2023-01-12T01:41:07.088Z,100824.38
2023-01-12T01:44:00.213Z,100828.47
2023-01-12T01:46:32.573Z,100824.22
2023-01-12T01:49:02.991Z,100818.78
2023-01-12T01:51:29.509Z,100821.19
2023-01-12T01:53:55.931Z,100812.38
2023-01-12T01:56:27.756Z,100812.75
2023-01-12T01:58:59.896Z,100802.22
2023-01-12T02:01:26.521Z,100809.69
2023-01-12T02:03:57.466Z,100805.25
2023-01-12T02:06:26.158Z,100795.94
2023-01-12T02:08:58.056Z,100799.84
2023-01-12T02:11:44.959Z,100806.28
2023-01-12T02:14:30.776Z,100799.69
2023-01-12T02:17:22.649Z,100793.78
2023-01-12T02:19:51.855Z,100781.34
2023-01-12T02:22:35.112Z,100764.56
2023-01-12T02:25:25.822Z,100757.28
2023-01-12T02:28:04.948Z,100754.69
2023-01-12T02:30:58.731Z,100750.81
2023-01-12T02:33:45.120Z,100748.75
2023-01-12T02:36:25.217Z,100740.97
2023-01-12T02:38:54.553Z,100745.22
2023-01-12T02:41:54.902Z,100735.19
2023-01-12T02:44:36.479Z,100731.53
2023-01-12T02:47:09.680Z,100739.84
2023-01-12T02:49:44.770Z,100751.56
2023-01-12T02:52:16.786Z,100750.38
2023-01-12T02:54:48.154Z,100739.34
2023-01-12T02:57:15.761Z,100728.00
2023-01-12T02:59:45.707Z,100729.34
2023-01-12T03:02:19.850Z,100726.63
2023-01-12T03:04:51.158Z,100719.66
2023-01-12T03:07:48.884Z,100726.09
2023-01-12T03:10:27.956Z,100731.72
2023-01-12T03:12:59.226Z,100727.47
2023-01-12T03:15:28.812Z,100719.50
2023-01-12T03:18:01.544Z,100726.94
2023-01-12T03:20:34.424Z,100721.72
2023-01-12T03:23:14.099Z,100722.25
2023-01-12T03:25:44.078Z,100734.47
2023-01-12T03:28:14.607Z,100726.97
2023-01-12T03:30:51.713Z,100722.06
2023-01-12T03:33:18.347Z,100714.09
2023-01-12T03:36:04.214Z,100712.03
2023-01-12T03:38:40.553Z,100705.56
2023-01-12T03:41:48.461Z,100700.81
2023-01-12T03:44:23.682Z,100695.72
2023-01-12T03:47:05.203Z,100702.84
2023-01-12T03:49:45.324Z,100694.00
2023-01-12T03:52:15.281Z,100695.06
2023-01-12T03:54:46.531Z,100696.25
2023-01-12T03:57:14.173Z,100694.03
2023-01-12T03:59:41.499Z,100696.75
2023-01-12T04:02:13.091Z,100713.75
2023-01-12T04:04:42.101Z,100703.72
2023-01-12T04:07:08.465Z,100697.25
2023-01-12T04:09:35.064Z,100692.31
2023-01-12T04:12:10.503Z,100697.25
2023-01-12T04:14:38.357Z,100694.22
2023-01-12T04:17:08.147Z,100683.84
2023-01-12T04:19:34.497Z,100696.09
2023-01-12T04:22:19.298Z,100699.47
2023-01-12T04:24:45.960Z,100701.53
2023-01-12T04:27:12.751Z,100692.69
2023-01-12T04:29:41.637Z,100681.81
2023-01-12T04:32:08.159Z,100675.72
2023-01-12T04:34:34.696Z,100679.09
2023-01-12T04:37:01.879Z,100668.72
2023-01-12T04:39:29.040Z,100674.84
2023-01-12T04:41:55.454Z,100677.72
2023-01-12T04:44:22.030Z,100666.84
2023-01-12T04:46:51.419Z,100655.31
2023-01-12T04:49:18.086Z,100665.69
2023-01-12T04:51:44.601Z,100665.16
2023-01-12T04:54:11.140Z,100666.50
2023-01-12T04:56:37.760Z,100652.25
2023-01-12T04:59:06.486Z,100663.63
2023-01-12T05:01:33.276Z,100651.91
2023-01-12T05:04:00.602Z,100650.53
2023-01-12T05:06:28.160Z,100655.63
2023-01-12T05:09:13.167Z,100647.16
2023-01-12T05:11:42.027Z,100651.56
2023-01-12T05:14:08.439Z,100642.56
2023-01-12T05:16:38.060Z,100654.47
2023-01-12T05:19:04.527Z,100652.78
2023-01-12T05:21:30.943Z,100644.78
2023-01-12T05:24:02.066Z,100649.19
2023-01-12T05:26:28.670Z,100650.91
2023-01-12T05:28:55.082Z,100635.44
2023-01-12T05:31:21.608Z,100635.44
2023-01-12T05:33:48.279Z,100624.88
2023-01-12T05:36:16.478Z,100609.59
2023-01-12T05:38:43.120Z,100610.63
2023-01-12T05:41:11.918Z,100601.13
2023-01-12T05:43:50.641Z,100597.53
2023-01-12T05:46:23.952Z,100602.13
2023-01-12T05:48:52.013Z,100596.69
2023-01-12T05:51:18.969Z,100594.47
2023-01-12T05:53:48.865Z,100598.06
2023-01-12T05:56:19.969Z,100592.78
2023-01-12T05:58:58.615Z,100582.94
2023-01-12T06:01:30.924Z,100577.50
2023-01-12T06:03:58.505Z,100578.50
2023-01-12T06:06:31.139Z,100570.53
2023-01-12T06:08:59.122Z,100573.25
2023-01-12T06:11:44.273Z,100568.00
2023-01-12T06:14:10.909Z,100557.28
2023-01-12T06:16:44.408Z,100566.13
2023-01-12T06:19:12.776Z,100577.00
2023-01-12T06:21:40.370Z,100573.78
2023-01-12T06:24:07.273Z,100565.44
2023-01-12T06:26:33.894Z,100568.34
2023-01-12T06:29:05.344Z,100572.72
2023-01-12T06:31:31.865Z,100568.00
2023-01-12T06:33:58.296Z,100569.66
2023-01-12T06:36:24.740Z,100569.66
2023-01-12T06:38:53.503Z,100573.44
2023-01-12T06:41:38.696Z,100570.34
2023-01-12T06:44:05.135Z,100558.13
2023-01-12T06:46:31.559Z,100559.63
2023-01-12T06:49:02.345Z,100564.75
2023-01-12T06:51:29.073Z,100562.19
2023-01-12T06:53:55.543Z,100569.34
2023-01-12T06:56:22.907Z,100569.34
2023-01-12T06:58:51.887Z,100564.06
2023-01-12T07:01:18.702Z,100568.00
2023-01-12T07:03:45.340Z,100566.28
2023-01-12T07:06:11.829Z,100568.00
2023-01-12T07:08:38.293Z,100570.34
2023-01-12T07:11:08.618Z,100575.94
2023-01-12T07:13:35.309Z,100580.03
2023-01-12T07:16:02.234Z,100579.03
2023-01-12T07:18:30.047Z,100574.44
2023-01-12T07:20:56.706Z,100576.81
2023-01-12T07:23:23.358Z,100567.63
2023-01-12T07:25:49.877Z,100562.38
2023-01-12T07:28:16.349Z,100569.34
2023-01-12T07:30:43.587Z,100566.94
2023-01-12T07:33:14.108Z,100560.84
2023-01-12T07:35:41.742Z,100560.84
2023-01-12T07:38:08.861Z,100555.41
2023-01-12T07:40:35.513Z,100546.22
2023-01-12T07:43:11.677Z,100551.31
2023-01-12T07:45:38.185Z,100561.34
2023-01-12T07:48:04.834Z,100554.19
2023-01-12T07:50:31.263Z,100556.41
2023-01-12T07:53:01.621Z,100559.31
2023-01-12T07:55:28.935Z,100558.63
2023-01-12T07:57:57.106Z,100570.00
2023-01-12T08:00:33.733Z,100559.63
2023-01-12T08:03:11.973Z,100556.75
2023-01-12T08:05:38.890Z,100554.53
2023-01-12T08:08:06.641Z,100540.44
2023-01-12T08:10:33.054Z,100539.22
2023-01-12T08:13:00.426Z,100541.09
2023-01-12T08:15:31.501Z,100542.78
2023-01-12T08:18:06.685Z,100548.03
2023-01-12T08:20:36.648Z,100547.88
2023-01-12T08:23:17.107Z,100547.03
2023-01-12T08:25:47.674Z,100561.47
2023-01-12T08:28:18.951Z,100556.38
2023-01-12T08:30:50.900Z,100564.53
2023-01-12T08:33:20.175Z,100546.38
2023-01-12T08:35:48.109Z,100543.44
2023-01-12T08:38:15.044Z,100543.94
2023-01-12T08:41:00.344Z,100555.53
2023-01-12T08:43:45.476Z,100562.47
2023-01-12T08:46:12.251Z,100560.44
2023-01-12T08:48:39.548Z,100568.75
2023-01-12T08:51:07.965Z,100564.19
2023-01-12T08:53:35.527Z,100561.63
2023-01-12T08:56:02.156Z,100561.09
2023-01-12T08:58:28.617Z,100552.09
2023-01-12T09:00:55.202Z,100542.75
2023-01-12T09:03:25.205Z,100545.78
2023-01-12T09:05:53.919Z,100539.31
2023-01-12T09:08:20.349Z,100535.59
2023-01-12T09:10:46.718Z,100534.38
2023-01-12T09:13:16.319Z,100530.78
2023-01-12T09:15:56.452Z,100520.41
2023-01-12T09:18:31.528Z,100521.09
2023-01-12T09:21:06.455Z,100522.13
2023-01-12T09:23:33.437Z,100521.91
2023-01-12T09:26:05.587Z,100519.88
2023-01-12T09:28:33.350Z,100537.91
2023-01-12T09:31:07.015Z,100537.69
2023-01-12T09:33:34.230Z,100539.75
2023-01-12T09:36:09.591Z,100544.84
2023-01-12T09:38:37.788Z,100556.56
2023-01-12T09:42:02.183Z,100542.13
2023-01-12T09:44:53.587Z,100555.84
2023-01-12T09:47:47.794Z,100554.13
2023-01-12T09:50:22.189Z,100557.69
2023-01-12T09:52:52.429Z,100554.44
2023-01-12T09:55:26.226Z,100537.75
2023-01-12T09:58:08.315Z,100536.72
2023-01-12T10:00:34.959Z,100532.13
2023-01-12T10:03:27.948Z,100529.22
2023-01-12T10:06:03.042Z,100539.56
2023-01-12T10:08:42.131Z,100537.19
2023-01-12T10:11:12.004Z,100539.69
2023-01-12T10:13:50.044Z,100536.13
2023-01-12T10:16:36.928Z,100546.84
2023-01-12T10:19:15.363Z,100539.69
2023-01-12T10:21:41.901Z,100549.41
2023-01-12T10:24:13.099Z,100539.34
2023-01-12T10:26:47.530Z,100547.16
2023-01-12T10:29:13.938Z,100536.94
2023-01-12T10:31:40.463Z,100530.47
2023-01-12T10:34:08.289Z,100523.63
2023-01-12T10:36:41.472Z,100528.19
2023-01-12T10:39:29.038Z,100523.50
2023-01-12T10:42:42.521Z,100525.00
2023-01-12T10:45:25.131Z,100526.13
2023-01-12T10:47:57.000Z,100533.59
2023-01-12T10:50:29.942Z,100536.59
2023-01-12T10:53:13.987Z,100536.22
2023-01-12T10:55:43.104Z,100524.13
2023-01-12T10:58:31.559Z,100519.88
2023-01-12T11:00:58.737Z,100520.94
2023-01-12T11:03:33.029Z,100519.88
2023-01-12T11:06:27.070Z,100527.03
2023-01-12T11:08:54.952Z,100510.31
2023-01-12T11:11:32.910Z,100534.19
2023-01-12T11:14:01.924Z,100526.88
2023-01-12T11:16:50.946Z,100524.72
2023-01-12T11:19:29.647Z,100514.28
2023-01-12T11:22:02.107Z,100511.94
2023-01-12T11:24:41.349Z,100519.81
2023-01-12T11:27:19.349Z,100518.97
2023-01-12T11:29:54.528Z,100511.47
2023-01-12T11:32:45.625Z,100510.25
2023-01-12T11:35:34.772Z,100509.59
2023-01-12T11:38:09.470Z,100502.06
2023-01-12T11:40:37.751Z,100486.00
2023-01-12T11:43:50.769Z,100488.53
2023-01-12T11:46:26.396Z,100472.38
2023-01-12T11:49:29.602Z,100466.91
2023-01-12T11:51:58.492Z,100460.06
2023-01-12T11:54:28.006Z,100448.94
2023-01-12T11:56:57.407Z,100454.88
2023-01-12T11:59:39.274Z,100444.09
2023-01-12T12:02:23.439Z,100448.13
2023-01-12T12:05:15.931Z,100461.28
2023-01-12T12:07:58.909Z,100446.34
2023-01-12T12:10:48.853Z,100445.66
2023-01-12T12:13:42.404Z,100447.28
2023-01-12T12:16:17.643Z,100446.06
2023-01-12T12:19:00.370Z,100453.09
2023-01-12T12:21:29.695Z,100445.59
2023-01-12T12:24:13.561Z,100438.81
2023-01-12T12:27:02.960Z,100439.75
2023-01-12T12:30:02.632Z,100437.19
2023-01-12T12:32:55.418Z,100427.22
2023-01-12T12:35:28.974Z,100439.81
2023-01-12T12:38:33.306Z,100435.13
2023-01-12T12:41:21.495Z,100423.44
2023-01-12T12:44:22.847Z,100425.69
2023-01-12T12:47:23.957Z,100422.28
2023-01-12T12:49:54.435Z,100413.44
2023-01-12T12:52:21.933Z,100416.84
2023-01-12T12:54:48.917Z,100413.94
2023-01-12T12:57:16.508Z,100421.47
2023-01-12T12:59:55.159Z,100414.78
2023-01-12T13:02:34.053Z,100418.38
2023-01-12T13:05:05.057Z,100415.44
2023-01-12T13:07:36.208Z,100421.94
2023-01-12T13:10:15.815Z,100417.69
2023-01-12T13:12:47.039Z,100413.28
2023-01-12T13:15:27.355Z,100423.34
2023-01-12T13:17:54.441Z,100411.59
2023-01-12T13:20:35.216Z,100429.44
2023-01-12T13:23:01.654Z,100421.59
2023-01-12T13:25:31.105Z,100418.88
2023-01-12T13:28:01.062Z,100414.97
2023-01-12T13:30:30.806Z,100417.69
2023-01-12T13:33:01.180Z,100409.72
2023-01-12T13:35:33.457Z,100412.91
2023-01-12T13:38:05.887Z,100401.81
2023-01-12T13:40:32.753Z,100400.63
2023-01-12T13:43:19.712Z,100394.31
2023-01-12T13:45:52.186Z,100396.38
2023-01-12T13:48:19.577Z,100393.66
2023-01-12T13:50:52.428Z,100394.31
2023-01-12T13:53:27.593Z,100385.13
2023-01-12T13:56:03.873Z,100387.00
2023-01-12T13:58:43.979Z,100387.84
2023-01-12T14:01:28.132Z,100374.41
2023-01-12T14:04:18.719Z,100387.38
2023-01-12T14:07:10.987Z,100393.16
2023-01-12T14:09:40.029Z,100391.63
2023-01-12T14:12:33.910Z,100393.72
2023-01-12T14:15:53.400Z,100390.53
2023-01-12T14:18:24.835Z,100402.44
2023-01-12T14:20:54.200Z,100395.75
2023-01-12T14:23:30.139Z,100400.19
2023-01-12T14:26:09.403Z,100402.06
2023-01-12T14:28:43.983Z,100402.72
2023-01-12T14:31:29.011Z,100403.09
2023-01-12T14:33:58.419Z,100403.28
2023-01-12T14:36:31.230Z,100396.53
2023-01-12T14:39:01.678Z,100392.09
2023-01-12T14:41:50.403Z,100383.91
2023-01-12T14:44:41.523Z,100385.31
2023-01-12T14:47:08.330Z,100392.84
2023-01-12T14:49:38.389Z,100387.56
2023-01-12T14:52:17.054Z,100383.34
2023-01-12T14:54:43.935Z,100379.94
2023-01-12T14:57:31.169Z,100383.69
2023-01-12T15:00:01.416Z,100378.25
2023-01-12T15:02:35.373Z,100384.06
2023-01-12T15:05:10.914Z,100384.91
2023-01-12T15:07:53.057Z,100380.16
2023-01-12T15:10:21.737Z,100386.06
2023-01-12T15:12:54.507Z,100382.28
2023-01-12T15:15:23.906Z,100377.91
2023-01-12T15:18:13.757Z,100376.66
2023-01-12T15:21:03.501Z,100376.50
2023-01-12T15:23:51.443Z,100374.41
2023-01-12T15:26:18.661Z,100373.41
2023-01-12T15:28:46.022Z,100376.41
2023-01-12T15:31:29.624Z,100360.72
2023-01-12T15:33:56.716Z,100371.91
2023-01-12T15:36:23.308Z,100369.38
2023-01-12T15:38:49.736Z,100358.66
2023-01-12T15:41:39.610Z,100357.63
2023-01-12T15:44:13.246Z,100354.69
2023-01-12T15:46:40.273Z,100354.69
2023-01-12T15:49:06.733Z,100354.47
2023-01-12T15:51:34.789Z,100346.97
2023-01-12T15:54:01.269Z,100353.44
2023-01-12T15:56:27.620Z,100355.31
2023-01-12T15:58:54.100Z,100346.31
2023-01-12T16:01:20.808Z,100346.31
2023-01-12T16:04:12.324Z,100351.56
2023-01-12T16:06:37.419Z,100357.28
2023-01-12T16:09:03.807Z,100348.94
2023-01-12T16:11:30.177Z,100343.50
2023-01-12T16:13:57.627Z,100346.38
2023-01-12T16:16:28.312Z,100344.50
2023-01-12T16:18:59.723Z,100347.25
2023-01-12T16:21:28.112Z,100351.38
2023-01-12T16:23:57.710Z,100363.13
2023-01-12T16:26:26.049Z,100355.63
2023-01-12T16:28:55.459Z,100362.94
2023-01-12T16:31:22.042Z,100362.75
2023-01-12T16:33:48.655Z,100358.03
2023-01-12T16:36:15.423Z,100361.63
2023-01-12T16:38:41.857Z,100365.38
2023-01-12T16:41:18.948Z,100360.78
2023-01-12T16:43:46.162Z,100353.44
2023-01-12T16:46:12.833Z,100359.75
2023-01-12T16:48:39.414Z,100361.16
2023-01-12T16:51:14.076Z,100357.75
2023-01-12T16:53:43.335Z,100366.13
2023-01-12T16:56:11.219Z,100360.19
2023-01-12T16:58:37.858Z,100345.03
2023-01-12T17:01:33.883Z,100343.53
2023-01-12T17:04:00.602Z,100353.56
2023-01-12T17:06:29.535Z,100354.25
2023-01-12T17:08:59.979Z,100351.69
2023-01-12T17:11:30.617Z,100340.97
2023-01-12T17:13:58.125Z,100342.69
2023-01-12T17:16:28.523Z,100351.69
2023-01-12T17:18:55.007Z,100346.25
2023-01-12T17:21:22.391Z,100336.38
2023-01-12T17:23:49.513Z,100345.41
2023-01-12T17:26:18.509Z,100347.09
2023-01-12T17:28:50.411Z,100346.63
2023-01-12T17:31:18.632Z,100348.69
2023-01-12T17:33:46.421Z,100338.16
2023-01-12T17:36:13.210Z,100332.06
2023-01-12T17:38:42.559Z,100325.78
2023-01-12T17:41:35.140Z,100326.41
2023-01-12T17:44:04.409Z,100326.41
2023-01-12T17:46:32.223Z,100325.78
2023-01-12T17:48:59.778Z,100340.25
2023-01-12T17:51:26.333Z,100338.16
2023-01-12T17:53:57.761Z,100336.13
2023-01-12T17:56:32.839Z,100341.72
2023-01-12T17:59:00.148Z,100336.28
2023-01-12T18:01:29.361Z,100331.69
2023-01-12T18:03:57.182Z,100335.81
2023-01-12T18:06:26.793Z,100341.44
2023-01-12T18:08:56.307Z,100343.44
2023-01-12T18:11:24.178Z,100338.47
2023-01-12T18:13:51.073Z,100328.97
2023-01-12T18:16:17.686Z,100332.72
2023-01-12T18:18:45.092Z,100327.75
2023-01-12T18:21:16.922Z,100328.13
2023-01-12T18:23:51.130Z,100327.09
2023-01-12T18:26:21.239Z,100326.41
2023-01-12T18:28:47.797Z,100315.91
2023-01-12T18:31:22.416Z,100324.91
2023-01-12T18:33:51.774Z,100323.13
2023-01-12T18:36:22.128Z,100314.84
2023-01-12T18:38:51.895Z,100309.31
2023-01-12T18:41:38.743Z,100313.22
2023-01-12T18:44:08.485Z,100310.25
2023-01-12T18:46:57.691Z,100307.50
2023-01-12T18:49:29.129Z,100302.88
2023-01-12T18:52:15.762Z,100304.97
2023-01-12T18:54:47.225Z,100298.50
2023-01-12T18:57:18.258Z,100303.09
2023-01-12T18:59:49.269Z,100292.19
2023-01-12T19:02:17.966Z,100306.66
2023-01-12T19:04:52.390Z,100298.97
2023-01-12T19:07:29.756Z,100310.03
2023-01-12T19:09:57.176Z,100308.25
2023-01-12T19:12:23.923Z,100311.84
2023-01-12T19:15:08.889Z,100310.81
2023-01-12T19:17:36.914Z,100300.41
2023-01-12T19:20:10.033Z,100307.72
2023-01-12T19:22:55.173Z,100304.06
2023-01-12T19:25:41.937Z,100303.88
2023-01-12T19:28:34.951Z,100309.81
2023-01-12T19:31:11.723Z,100300.31
2023-01-12T19:33:43.757Z,100287.34
2023-01-12T19:36:15.552Z,100303.59
2023-01-12T19:38:50.593Z,100290.75
2023-01-12T19:41:35.861Z,100306.22
2023-01-12T19:44:05.293Z,100297.22
2023-01-12T19:46:34.512Z,100295.41
2023-01-12T19:49:01.073Z,100292.78
2023-01-12T19:51:27.445Z,100281.91
2023-01-12T19:53:53.801Z,100284.63
2023-01-12T19:56:20.206Z,100289.41
2023-01-12T19:58:51.720Z,100292.63
2023-01-12T20:01:22.244Z,100286.31
2023-01-12T20:03:50.551Z,100275.59
2023-01-12T20:06:17.352Z,100272.41
2023-01-12T20:08:44.118Z,100271.38
2023-01-12T20:11:10.494Z,100260.50
2023-01-12T20:13:39.087Z,100267.63
2023-01-12T20:16:10.393Z,100266.31
2023-01-12T20:18:37.082Z,100265.09
2023-01-12T20:21:08.619Z,100265.19
2023-01-12T20:23:35.359Z,100261.44
2023-01-12T20:26:04.859Z,100262.84
2023-01-12T20:28:31.328Z,100265.66
2023-01-12T20:31:06.658Z,100261.81
2023-01-12T20:33:34.239Z,100252.22
2023-01-12T20:36:01.302Z,100251.56
2023-01-12T20:38:27.906Z,100251.84
2023-01-12T20:40:54.401Z,100245.75
2023-01-12T20:43:20.776Z,100236.06
2023-01-12T20:45:47.270Z,100243.78
2023-01-12T20:48:16.083Z,100236.63
2023-01-12T20:50:44.237Z,100240.19
2023-01-12T20:53:11.446Z,100234.56
2023-01-12T20:55:47.941Z,100233.09
2023-01-12T20:58:14.815Z,100228.19
2023-01-12T21:00:44.147Z,100234.19
2023-01-12T21:03:10.631Z,100221.13
2023-01-12T21:05:44.432Z,100223.47
2023-01-12T21:08:14.295Z,100219.47
2023-01-12T21:10:51.767Z,100215.44
2023-01-12T21:13:19.313Z,100221.13
2023-01-12T21:15:48.337Z,100225.19
2023-01-12T21:18:15.167Z,100234.38
2023-01-12T21:20:46.524Z,100213.91
2023-01-12T21:23:12.909Z,100220.88
2023-01-12T21:25:43.248Z,100226.13
2023-01-12T21:28:10.423Z,100216.91
2023-01-12T21:30:37.931Z,100224.06
2023-01-12T21:33:04.496Z,100204.53
2023-01-12T21:35:30.960Z,100208.75
2023-01-12T21:37:58.461Z,100211.00
2023-01-12T21:40:25.465Z,100203.00
2023-01-12T21:43:10.306Z,100193.34
2023-01-12T21:45:39.573Z,100201.13
2023-01-12T21:48:06.886Z,100192.13
2023-01-12T21:50:34.039Z,100193.19
2023-01-12T21:53:02.668Z,100194.66
2023-01-12T21:55:30.627Z,100192.22
2023-01-12T21:57:56.998Z,100194.66
2023-01-12T22:00:23.793Z,100190.69
2023-01-12T22:02:51.405Z,100192.22
2023-01-12T22:05:22.171Z,100192.69
2023-01-12T22:07:50.048Z,100185.34
2023-01-12T22:10:21.816Z,100189.09
2023-01-12T22:12:54.153Z,100180.09
2023-01-12T22:15:22.192Z,100182.81
2023-01-12T22:17:48.605Z,100186.38
2023-01-12T22:20:16.521Z,100189.28
2023-01-12T22:22:44.276Z,100183.03
2023-01-12T22:25:13.301Z,100187.63
2023-01-12T22:27:43.616Z,100184.91
2023-01-12T22:30:13.527Z,100184.91
2023-01-12T22:32:41.201Z,100197.19
2023-01-12T22:35:08.778Z,100182.25
2023-01-12T22:37:39.411Z,100176.63
2023-01-12T22:40:08.779Z,100182.31
2023-01-12T22:42:56.781Z,100183.34
2023-01-12T22:45:23.284Z,100166.28
2023-01-12T22:47:56.347Z,100175.56
2023-01-12T22:50:24.361Z,100176.47
2023-01-12T22:52:52.631Z,100173.97
2023-01-12T22:55:20.320Z,100169.44
2023-01-12T22:57:46.762Z,100171.94
2023-01-12T23:00:14.090Z,100160.69
2023-01-12T23:02:59.241Z,100172.88
2023-01-12T23:05:27.291Z,100170.78
2023-01-12T23:07:53.724Z,100162.22
2023-01-12T23:10:20.212Z,100167.94
2023-01-12T23:13:06.664Z,100159.50
2023-01-12T23:15:40.688Z,100160.34
2023-01-12T23:18:08.176Z,100149.25
2023-01-12T23:20:38.157Z,100152.03
2023-01-12T23:23:08.143Z,100143.69
2023-01-12T23:25:42.289Z,100155.28
2023-01-12T23:28:11.714Z,100137.63
2023-01-12T23:30:38.276Z,100131.31
2023-01-12T23:33:05.778Z,100138.03
2023-01-12T23:35:36.902Z,100137.16
2023-01-12T23:38:04.254Z,100120.56
2023-01-12T23:40:31.261Z,100112.75
2023-01-12T23:42:57.873Z,100125.19
2023-01-12T23:45:24.441Z,100112.13
2023-01-12T23:47:51.718Z,100124.72
2023-01-12T23:50:18.711Z,100111.72
2023-01-12T23:52:48.604Z,100115.88
2023-01-12T23:55:17.307Z,100117.19
2023-01-12T23:57:47.280Z,100119.06
